Austin, Texas
Traffic Map
Current Weather Conditions
Austin, Texas
Scattered Clouds
Scattered Clouds
22°
Feels Like: 22°
Wind Chill: 22° Ceiling: Unl
Heat Index: 22° Visibility: 10mi
Dew Point: 17° Wind: 0mph
Humidity: 75% Direction: ° ()
Pressure: 29.71in Gusts: 0mph
Raw Report DataKATT 271532Z AUTO 00000KT 10SM SCT013 22/17 A2971 RMK AO2 T02170172
Traffic Incident Summary
Active as of:
Severity:
Category:
InformationThere was an issue retrieving the traffic information for this location. Please try a different location or try again shortly.
Advertisements
Track Severe Weather on mobile